Date,TemperatureHighF,TemperatureAvgF,TemperatureLowF,DewpointHighF,DewpointAvgF,DewpointLowF,HumidityHigh,HumidityAvg,HumidityLow,PressureMaxIn,PressureMinIn,WindSpeedMaxMPH,WindSpeedAvgMPH,GustSpeedMaxMPH,PrecipitationSumIn
2013-1-1,33.0,24.8,21.0,26.0,13.2,8.0,75,61,51,30.13,29.98,26,14,0,0.00
2013-1-2,28.0,24.3,22.0,21.0,16.4,13.0,82,71,62,30.11,30.01,22,16,0,0.00
2013-1-3,27.0,24.7,20.0,24.0,19.1,13.0,89,79,73,30.19,29.95,25,19,0,0.00
2013-1-4,33.0,22.2,13.0,23.0,14.0,5.0,76,70,65,30.19,30.00,24,18,0,0.00
2013-1-5,34.0,32.0,31.0,32.0,23.4,20.0,94,70,61,30.20,29.98,28,15,0,0.00
2013-1-6,39.0,33.8,28.0,35.0,32.2,25.0,99,93,83,30.21,29.86,28,19,0,0.00
2013-1-7,40.0,33.1,27.0,29.0,23.9,21.0,84,69,55,30.32,29.84,29,18,0,0.00
2013-1-8,39.0,36.6,35.0,35.0,30.7,28.0,88,79,72,30.11,29.88,28,16,0,0.00
2013-1-9,43.0,38.8,35.0,33.0,25.9,22.0,79,60,44,30.43,29.83,29,21,0,0.00
2013-1-10,39.0,36.8,35.0,33.0,28.9,24.0,85,72,63,30.51,30.25,29,16,0,0.00
2013-1-11,50.0,43.9,38.0,50.0,41.5,31.0,99,90,71,30.22,29.75,29,22,0,0.00
2013-1-12,57.0,49.9,44.0,54.0,46.8,42.0,100,89,76,29.95,29.26,24,16,0,0.00
2013-1-13,49.0,40.5,34.0,49.0,40.4,34.0,100,100,98,30.03,29.77,29,9,0,0.00
2013-1-14,33.0,26.1,24.0,32.0,18.7,15.0,95,73,64,30.45,30.06,16,7,0,0.00
2013-1-15,32.0,26.8,21.0,21.0,17.6,16.0,82,68,56,30.45,30.19,7,4,0,0.00
2013-1-16,36.0,30.9,25.0,24.0,21.7,19.0,85,69,53,30.15,29.86,21,11,0,0.00
2013-1-17,37.0,32.1,17.0,28.0,22.0,3.0,82,66,51,30.29,29.52,26,11,0,0.00
2013-1-18,27.0,19.1,15.0,21.0,9.4,2.0,84,65,53,30.42,30.06,25,18,0,0.00
2013-1-19,44.0,39.3,34.0,33.0,29.3,26.0,75,67,61,29.92,29.46,29,23,0,0.00
2013-1-20,32.0,16.0,12.0,31.0,6.4,2.0,97,65,56,30.12,29.41,29,24,0,0.00
2013-1-21,13.0,3.8,-5.0,6.0,-6.7,-17.0,76,61,50,30.27,29.91,28,23,0,0.00
2013-1-22,7.0,0.1,-5.0,-6.0,-10.7,-16.0,71,59,48,30.40,30.27,22,16,0,0.00
2013-1-23,17.0,8.2,-1.0,9.0,0.6,-9.0,84,71,52,30.29,30.03,28,18,0,0.00
2013-1-24,17.0,14.2,8.0,11.0,4.1,-2.0,83,64,44,30.58,30.37,26,13,0,0.00
2013-1-25,18.0,13.6,9.0,12.0,7.3,2.0,82,76,65,30.53,30.07,11,8,0,0.00
2013-1-26,28.0,21.6,15.0,19.0,15.2,9.0,85,76,68,30.39,30.08,20,10,0,0.00
2013-1-27,35.0,32.6,29.0,35.0,27.7,17.0,98,82,61,30.35,29.94,29,19,0,0.00
2013-1-28,40.0,34.9,31.0,40.0,34.0,28.0,99,96,88,29.98,29.79,23,13,0,0.00
2013-1-29,57.0,39.0,33.0,56.0,38.1,32.0,100,97,90,29.98,29.55,26,18,0,0.00
2013-1-30,58.0,32.4,19.0,55.0,31.9,16.0,100,98,87,29.51,29.16,29,22,0,0.00
2013-1-31,17.0,12.4,5.0,9.0,3.9,-3.0,73,68,62,30.11,29.26,29,21,0,0.00
2013-2-1,6.0,2.5,-1.0,-1.0,-4.7,-7.0,80,71,65,30.26,29.49,29,22,0,0.00
2013-2-2,20.0,11.2,4.0,12.0,2.8,-5.0,86,69,59,30.12,30.01,21,14,0,0.00
2013-2-3,21.0,17.0,12.0,15.0,9.7,6.0,89,72,59,30.00,29.80,29,14,0,0.00
2013-2-4,18.0,13.5,11.0,8.0,4.3,1.0,81,66,50,29.99,29.90,28,13,0,0.00
2013-2-5,33.0,26.9,19.0,26.0,18.0,5.0,91,70,49,30.07,29.79,29,18,0,0.00
2013-2-6,33.0,29.7,25.0,29.0,21.9,18.0,97,73,59,30.26,30.07,17,10,0,0.00
2013-2-7,32.0,22.2,13.0,29.0,-22.0,-99.9,94,58,82,30.20,30.05,24,19,0,0.00
2013-2-8,30.0,26.5,24.0,-99.9,-99.9,-99.9,0,0,100,30.22,29.90,28,25,0,0.00
2013-2-9,27.0,22.1,17.0,-99.9,-99.9,-99.9,0,0,100,30.45,30.27,22,9,0,0.00
2013-2-10,39.0,26.7,17.0,-99.9,-99.9,-99.9,0,0,100,30.33,29.76,22,16,0,0.00
2013-2-11,42.0,38.0,34.0,-17.0,-94.7,-99.9,8,0,8,29.75,29.51,26,23,0,0.00
2013-2-12,34.0,31.2,30.0,-99.9,-99.9,-99.9,0,0,100,29.97,29.75,28,21,0,0.00
2013-2-13,33.0,28.6,26.0,-99.9,-99.9,-99.9,0,0,100,29.89,29.71,23,14,0,0.00
2013-2-14,34.0,30.8,28.0,-99.9,-99.9,-99.9,0,0,100,29.97,29.65,24,16,0,0.00
2013-2-15,29.0,22.3,15.0,-99.9,-99.9,-99.9,0,0,100,30.20,29.97,24,14,0,0.00
2013-2-16,17.0,12.9,8.0,-99.9,-99.9,-99.9,0,0,100,30.12,30.06,22,12,0,0.00
2013-2-17,21.0,17.4,12.0,-99.9,-99.9,-99.9,0,0,100,30.19,30.03,22,10,0,0.00
2013-2-18,21.0,21.0,21.0,-99.9,-99.9,-99.9,0,0,100,30.19,30.18,10,8,0,0.00